sensor_id;sensor_type;location;lat;lon;timestamp;P1;durP1;ratioP1;P2;durP2;ratioP2
6292;SDS011;3179;54.350;10.102;2022-12-07T00:00:36;7.87;;;6.83;;
6292;SDS011;3179;54.350;10.102;2022-12-07T00:03:02;7.60;;;6.00;;
6292;SDS011;3179;54.350;10.102;2022-12-07T00:05:29;7.60;;;6.10;;
6292;SDS011;3179;54.350;10.102;2022-12-07T00:07:56;7.30;;;5.50;;
6292;SDS011;3179;54.350;10.102;2022-12-07T00:10:23;7.50;;;6.37;;
6292;SDS011;3179;54.350;10.102;2022-12-07T00:12:50;7.20;;;5.83;;
6292;SDS011;3179;54.350;10.102;2022-12-07T00:15:18;7.07;;;6.30;;
6292;SDS011;3179;54.350;10.102;2022-12-07T00:17:45;6.23;;;5.63;;
6292;SDS011;3179;54.350;10.102;2022-12-07T00:20:11;7.77;;;6.17;;
6292;SDS011;3179;54.350;10.102;2022-12-07T00:22:38;7.63;;;6.17;;
6292;SDS011;3179;54.350;10.102;2022-12-07T00:25:05;6.83;;;6.13;;
6292;SDS011;3179;54.350;10.102;2022-12-07T00:27:32;6.20;;;5.60;;
6292;SDS011;3179;54.350;10.102;2022-12-07T00:29:59;8.00;;;5.90;;
6292;SDS011;3179;54.350;10.102;2022-12-07T00:32:27;6.93;;;6.23;;
6292;SDS011;3179;54.350;10.102;2022-12-07T00:34:54;7.60;;;6.33;;
6292;SDS011;3179;54.350;10.102;2022-12-07T00:37:21;8.67;;;7.30;;
6292;SDS011;3179;54.350;10.102;2022-12-07T00:39:48;6.80;;;5.60;;
6292;SDS011;3179;54.350;10.102;2022-12-07T00:42:14;10.47;;;7.40;;
6292;SDS011;3179;54.350;10.102;2022-12-07T00:44:41;7.77;;;6.83;;
6292;SDS011;3179;54.350;10.102;2022-12-07T00:47:08;8.10;;;6.90;;
6292;SDS011;3179;54.350;10.102;2022-12-07T00:49:36;7.97;;;5.97;;
6292;SDS011;3179;54.350;10.102;2022-12-07T00:52:03;8.10;;;6.00;;
6292;SDS011;3179;54.350;10.102;2022-12-07T00:54:30;6.43;;;5.73;;
6292;SDS011;3179;54.350;10.102;2022-12-07T00:56:57;6.60;;;5.93;;
6292;SDS011;3179;54.350;10.102;2022-12-07T00:59:24;8.20;;;6.07;;
6292;SDS011;3179;54.350;10.102;2022-12-07T01:01:50;7.07;;;6.33;;
6292;SDS011;3179;54.350;10.102;2022-12-07T01:04:17;6.93;;;6.23;;
6292;SDS011;3179;54.350;10.102;2022-12-07T01:06:45;7.93;;;6.00;;
6292;SDS011;3179;54.350;10.102;2022-12-07T01:09:12;7.07;;;5.93;;
6292;SDS011;3179;54.350;10.102;2022-12-07T01:11:39;9.37;;;7.67;;
6292;SDS011;3179;54.350;10.102;2022-12-07T01:14:05;6.73;;;6.00;;
6292;SDS011;3179;54.350;10.102;2022-12-07T01:16:32;7.00;;;6.30;;
6292;SDS011;3179;54.350;10.102;2022-12-07T01:18:59;7.23;;;6.27;;
6292;SDS011;3179;54.350;10.102;2022-12-07T01:21:30;6.73;;;5.60;;
6292;SDS011;3179;54.350;10.102;2022-12-07T01:24:01;9.63;;;6.13;;
6292;SDS011;3179;54.350;10.102;2022-12-07T01:26:28;7.13;;;5.63;;
6292;SDS011;3179;54.350;10.102;2022-12-07T01:28:55;5.80;;;5.10;;
6292;SDS011;3179;54.350;10.102;2022-12-07T01:31:24;8.43;;;6.40;;
6292;SDS011;3179;54.350;10.102;2022-12-07T01:33:53;7.83;;;6.00;;
6292;SDS011;3179;54.350;10.102;2022-12-07T01:36:21;6.47;;;5.60;;
6292;SDS011;3179;54.350;10.102;2022-12-07T01:38:50;9.10;;;6.17;;
6292;SDS011;3179;54.350;10.102;2022-12-07T01:41:23;6.47;;;5.40;;
6292;SDS011;3179;54.350;10.102;2022-12-07T01:44:11;5.80;;;5.20;;
6292;SDS011;3179;54.350;10.102;2022-12-07T01:46:40;5.07;;;4.57;;
6292;SDS011;3179;54.350;10.102;2022-12-07T01:49:09;6.20;;;5.23;;
6292;SDS011;3179;54.350;10.102;2022-12-07T01:51:40;6.70;;;5.20;;
6292;SDS011;3179;54.350;10.102;2022-12-07T01:54:09;5.87;;;5.07;;
6292;SDS011;3179;54.350;10.102;2022-12-07T01:56:39;5.20;;;4.70;;
6292;SDS011;3179;54.350;10.102;2022-12-07T01:59:08;8.27;;;5.67;;
6292;SDS011;3179;54.350;10.102;2022-12-07T02:01:35;6.83;;;4.67;;
6292;SDS011;3179;54.350;10.102;2022-12-07T02:04:02;8.37;;;5.83;;
6292;SDS011;3179;54.350;10.102;2022-12-07T02:06:29;7.07;;;5.43;;
6292;SDS011;3179;54.350;10.102;2022-12-07T02:08:56;7.33;;;5.37;;
6292;SDS011;3179;54.350;10.102;2022-12-07T02:11:23;7.67;;;6.20;;
6292;SDS011;3179;54.350;10.102;2022-12-07T02:13:51;8.43;;;6.60;;
6292;SDS011;3179;54.350;10.102;2022-12-07T02:16:22;9.87;;;6.83;;
6292;SDS011;3179;54.350;10.102;2022-12-07T02:18:56;9.67;;;6.90;;
6292;SDS011;3179;54.350;10.102;2022-12-07T02:21:36;9.70;;;7.80;;
6292;SDS011;3179;54.350;10.102;2022-12-07T02:24:16;9.53;;;7.73;;
6292;SDS011;3179;54.350;10.102;2022-12-07T02:27:04;12.40;;;8.47;;
6292;SDS011;3179;54.350;10.102;2022-12-07T02:29:53;9.30;;;7.40;;
6292;SDS011;3179;54.350;10.102;2022-12-07T02:32:25;10.50;;;8.60;;
6292;SDS011;3179;54.350;10.102;2022-12-07T02:34:58;9.03;;;7.97;;
6292;SDS011;3179;54.350;10.102;2022-12-07T02:37:33;10.10;;;8.10;;
6292;SDS011;3179;54.350;10.102;2022-12-07T02:40:06;10.13;;;7.40;;
6292;SDS011;3179;54.350;10.102;2022-12-07T02:42:42;9.73;;;8.07;;
6292;SDS011;3179;54.350;10.102;2022-12-07T02:45:13;9.70;;;7.70;;
6292;SDS011;3179;54.350;10.102;2022-12-07T02:47:43;8.50;;;7.17;;
6292;SDS011;3179;54.350;10.102;2022-12-07T02:50:11;8.50;;;7.10;;
6292;SDS011;3179;54.350;10.102;2022-12-07T02:52:38;9.40;;;7.50;;
6292;SDS011;3179;54.350;10.102;2022-12-07T02:55:05;9.37;;;7.30;;
6292;SDS011;3179;54.350;10.102;2022-12-07T02:57:38;8.90;;;7.87;;
6292;SDS011;3179;54.350;10.102;2022-12-07T03:00:16;12.97;;;8.60;;
6292;SDS011;3179;54.350;10.102;2022-12-07T03:02:48;8.70;;;7.20;;
6292;SDS011;3179;54.350;10.102;2022-12-07T03:05:27;9.53;;;7.30;;
6292;SDS011;3179;54.350;10.102;2022-12-07T03:08:06;8.67;;;6.97;;
6292;SDS011;3179;54.350;10.102;2022-12-07T03:10:40;10.83;;;7.40;;
6292;SDS011;3179;54.350;10.102;2022-12-07T03:13:16;9.17;;;7.63;;
6292;SDS011;3179;54.350;10.102;2022-12-07T03:15:54;8.20;;;6.30;;
6292;SDS011;3179;54.350;10.102;2022-12-07T03:18:25;10.03;;;7.40;;
6292;SDS011;3179;54.350;10.102;2022-12-07T03:20:56;7.43;;;6.50;;
6292;SDS011;3179;54.350;10.102;2022-12-07T03:23:27;9.67;;;7.37;;
6292;SDS011;3179;54.350;10.102;2022-12-07T03:25:57;9.00;;;7.57;;
6292;SDS011;3179;54.350;10.102;2022-12-07T03:28:27;9.07;;;7.20;;
6292;SDS011;3179;54.350;10.102;2022-12-07T03:31:01;8.90;;;7.37;;
6292;SDS011;3179;54.350;10.102;2022-12-07T03:33:32;6.73;;;6.03;;
6292;SDS011;3179;54.350;10.102;2022-12-07T03:36:04;9.57;;;7.40;;
6292;SDS011;3179;54.350;10.102;2022-12-07T03:38:35;9.20;;;6.40;;
6292;SDS011;3179;54.350;10.102;2022-12-07T03:41:05;6.97;;;6.23;;
6292;SDS011;3179;54.350;10.102;2022-12-07T03:43:35;6.80;;;5.53;;
6292;SDS011;3179;54.350;10.102;2022-12-07T03:46:06;7.80;;;6.93;;
6292;SDS011;3179;54.350;10.102;2022-12-07T03:48:44;7.43;;;6.40;;
6292;SDS011;3179;54.350;10.102;2022-12-07T03:51:18;7.60;;;6.90;;
6292;SDS011;3179;54.350;10.102;2022-12-07T03:53:48;9.33;;;7.10;;
6292;SDS011;3179;54.350;10.102;2022-12-07T03:56:20;8.70;;;7.47;;
6292;SDS011;3179;54.350;10.102;2022-12-07T03:58:49;9.40;;;6.43;;
6292;SDS011;3179;54.350;10.102;2022-12-07T04:01:18;7.87;;;6.13;;
6292;SDS011;3179;54.350;10.102;2022-12-07T04:03:45;6.77;;;6.07;;
6292;SDS011;3179;54.350;10.102;2022-12-07T04:06:12;7.20;;;6.23;;
6292;SDS011;3179;54.350;10.102;2022-12-07T04:08:39;7.00;;;5.50;;
6292;SDS011;3179;54.350;10.102;2022-12-07T04:11:06;7.80;;;6.33;;
6292;SDS011;3179;54.350;10.102;2022-12-07T04:13:32;8.27;;;6.50;;
6292;SDS011;3179;54.350;10.102;2022-12-07T04:16:21;7.77;;;6.97;;
6292;SDS011;3179;54.350;10.102;2022-12-07T04:18:48;9.53;;;6.90;;
6292;SDS011;3179;54.350;10.102;2022-12-07T04:21:15;10.10;;;6.77;;
6292;SDS011;3179;54.350;10.102;2022-12-07T04:23:41;10.37;;;6.83;;
6292;SDS011;3179;54.350;10.102;2022-12-07T04:26:08;9.30;;;7.30;;
6292;SDS011;3179;54.350;10.102;2022-12-07T04:28:35;8.30;;;6.83;;
6292;SDS011;3179;54.350;10.102;2022-12-07T04:31:02;9.13;;;7.10;;
6292;SDS011;3179;54.350;10.102;2022-12-07T04:33:30;10.13;;;8.07;;
6292;SDS011;3179;54.350;10.102;2022-12-07T04:35:58;9.30;;;7.60;;
6292;SDS011;3179;54.350;10.102;2022-12-07T04:38:24;7.60;;;6.50;;
6292;SDS011;3179;54.350;10.102;2022-12-07T04:40:51;7.23;;;6.47;;
6292;SDS011;3179;54.350;10.102;2022-12-07T04:43:18;8.80;;;7.50;;
6292;SDS011;3179;54.350;10.102;2022-12-07T04:45:45;11.07;;;7.60;;
6292;SDS011;3179;54.350;10.102;2022-12-07T04:48:13;10.10;;;7.33;;
6292;SDS011;3179;54.350;10.102;2022-12-07T04:50:41;9.13;;;7.83;;
6292;SDS011;3179;54.350;10.102;2022-12-07T04:53:08;10.00;;;8.13;;
6292;SDS011;3179;54.350;10.102;2022-12-07T04:55:34;8.33;;;7.10;;
6292;SDS011;3179;54.350;10.102;2022-12-07T04:58:02;8.83;;;7.20;;
6292;SDS011;3179;54.350;10.102;2022-12-07T05:00:28;8.70;;;6.93;;
6292;SDS011;3179;54.350;10.102;2022-12-07T05:02:55;8.30;;;6.90;;
6292;SDS011;3179;54.350;10.102;2022-12-07T05:05:22;6.83;;;6.03;;
6292;SDS011;3179;54.350;10.102;2022-12-07T05:07:50;8.83;;;7.00;;
6292;SDS011;3179;54.350;10.102;2022-12-07T05:10:17;8.00;;;6.77;;
6292;SDS011;3179;54.350;10.102;2022-12-07T05:12:44;9.20;;;7.80;;
6292;SDS011;3179;54.350;10.102;2022-12-07T05:15:11;9.40;;;7.40;;
6292;SDS011;3179;54.350;10.102;2022-12-07T05:17:38;10.10;;;7.97;;
6292;SDS011;3179;54.350;10.102;2022-12-07T05:20:05;9.17;;;7.77;;
6292;SDS011;3179;54.350;10.102;2022-12-07T05:22:33;10.70;;;8.30;;
6292;SDS011;3179;54.350;10.102;2022-12-07T05:25:02;9.43;;;6.97;;
6292;SDS011;3179;54.350;10.102;2022-12-07T05:27:29;9.03;;;7.63;;
6292;SDS011;3179;54.350;10.102;2022-12-07T05:29:56;8.80;;;6.70;;
6292;SDS011;3179;54.350;10.102;2022-12-07T05:32:22;10.10;;;8.13;;
6292;SDS011;3179;54.350;10.102;2022-12-07T05:34:49;9.53;;;7.47;;
6292;SDS011;3179;54.350;10.102;2022-12-07T05:37:16;11.03;;;7.17;;
6292;SDS011;3179;54.350;10.102;2022-12-07T05:39:42;9.50;;;7.70;;
6292;SDS011;3179;54.350;10.102;2022-12-07T05:42:11;8.60;;;7.17;;
6292;SDS011;3179;54.350;10.102;2022-12-07T05:44:37;7.83;;;6.67;;
6292;SDS011;3179;54.350;10.102;2022-12-07T05:47:04;7.60;;;6.80;;
6292;SDS011;3179;54.350;10.102;2022-12-07T05:49:30;10.37;;;6.73;;
6292;SDS011;3179;54.350;10.102;2022-12-07T05:51:57;8.93;;;6.57;;
6292;SDS011;3179;54.350;10.102;2022-12-07T05:54:24;11.57;;;7.07;;
6292;SDS011;3179;54.350;10.102;2022-12-07T05:56:51;13.53;;;6.73;;
6292;SDS011;3179;54.350;10.102;2022-12-07T05:59:19;7.90;;;6.20;;
6292;SDS011;3179;54.350;10.102;2022-12-07T06:01:48;10.63;;;6.90;;
6292;SDS011;3179;54.350;10.102;2022-12-07T06:04:15;8.00;;;6.70;;
6292;SDS011;3179;54.350;10.102;2022-12-07T06:06:42;7.93;;;6.53;;
6292;SDS011;3179;54.350;10.102;2022-12-07T06:09:08;7.80;;;6.70;;
6292;SDS011;3179;54.350;10.102;2022-12-07T06:11:36;7.90;;;6.53;;
6292;SDS011;3179;54.350;10.102;2022-12-07T06:14:21;8.10;;;6.47;;
6292;SDS011;3179;54.350;10.102;2022-12-07T06:16:48;9.57;;;6.73;;
6292;SDS011;3179;54.350;10.102;2022-12-07T06:19:14;9.90;;;6.60;;
6292;SDS011;3179;54.350;10.102;2022-12-07T06:21:41;7.47;;;6.47;;
6292;SDS011;3179;54.350;10.102;2022-12-07T06:24:08;6.63;;;5.90;;
6292;SDS011;3179;54.350;10.102;2022-12-07T06:26:37;7.87;;;6.00;;
6292;SDS011;3179;54.350;10.102;2022-12-07T06:29:04;6.07;;;5.30;;
6292;SDS011;3179;54.350;10.102;2022-12-07T06:31:32;8.70;;;5.47;;
6292;SDS011;3179;54.350;10.102;2022-12-07T06:33:59;7.43;;;5.50;;
6292;SDS011;3179;54.350;10.102;2022-12-07T06:36:27;9.60;;;6.80;;
6292;SDS011;3179;54.350;10.102;2022-12-07T06:38:54;6.70;;;5.60;;
6292;SDS011;3179;54.350;10.102;2022-12-07T06:41:21;8.53;;;5.50;;
6292;SDS011;3179;54.350;10.102;2022-12-07T06:43:48;6.80;;;6.10;;
6292;SDS011;3179;54.350;10.102;2022-12-07T06:46:15;7.50;;;6.23;;
6292;SDS011;3179;54.350;10.102;2022-12-07T06:48:43;7.90;;;6.20;;
6292;SDS011;3179;54.350;10.102;2022-12-07T06:51:10;7.03;;;6.10;;
6292;SDS011;3179;54.350;10.102;2022-12-07T06:53:37;6.83;;;5.70;;
6292;SDS011;3179;54.350;10.102;2022-12-07T06:56:04;6.90;;;5.40;;
6292;SDS011;3179;54.350;10.102;2022-12-07T06:58:31;8.67;;;6.80;;
6292;SDS011;3179;54.350;10.102;2022-12-07T07:00:58;9.37;;;6.27;;
6292;SDS011;3179;54.350;10.102;2022-12-07T07:03:25;6.70;;;5.70;;
6292;SDS011;3179;54.350;10.102;2022-12-07T07:05:53;7.40;;;5.93;;
6292;SDS011;3179;54.350;10.102;2022-12-07T07:08:20;7.37;;;5.23;;
6292;SDS011;3179;54.350;10.102;2022-12-07T07:10:46;6.87;;;5.33;;
6292;SDS011;3179;54.350;10.102;2022-12-07T07:13:13;7.50;;;5.80;;
6292;SDS011;3179;54.350;10.102;2022-12-07T07:15:40;9.47;;;5.10;;
6292;SDS011;3179;54.350;10.102;2022-12-07T07:18:07;4.50;;;4.00;;
6292;SDS011;3179;54.350;10.102;2022-12-07T07:20:33;6.77;;;5.07;;
6292;SDS011;3179;54.350;10.102;2022-12-07T07:23:02;9.00;;;5.20;;
6292;SDS011;3179;54.350;10.102;2022-12-07T07:25:28;5.43;;;4.87;;
6292;SDS011;3179;54.350;10.102;2022-12-07T07:27:55;5.70;;;4.57;;
6292;SDS011;3179;54.350;10.102;2022-12-07T07:30:22;5.10;;;4.60;;
6292;SDS011;3179;54.350;10.102;2022-12-07T07:32:49;4.87;;;4.33;;
6292;SDS011;3179;54.350;10.102;2022-12-07T07:35:16;5.27;;;4.20;;
6292;SDS011;3179;54.350;10.102;2022-12-07T07:37:43;6.70;;;5.27;;
6292;SDS011;3179;54.350;10.102;2022-12-07T07:40:11;5.40;;;4.47;;
6292;SDS011;3179;54.350;10.102;2022-12-07T07:42:38;5.20;;;4.37;;
6292;SDS011;3179;54.350;10.102;2022-12-07T07:45:05;5.83;;;4.70;;
6292;SDS011;3179;54.350;10.102;2022-12-07T07:47:33;5.70;;;4.40;;
6292;SDS011;3179;54.350;10.102;2022-12-07T07:50:00;6.03;;;5.00;;
6292;SDS011;3179;54.350;10.102;2022-12-07T07:52:26;8.53;;;4.70;;
6292;SDS011;3179;54.350;10.102;2022-12-07T07:54:53;8.73;;;4.50;;
6292;SDS011;3179;54.350;10.102;2022-12-07T07:57:22;7.10;;;4.43;;
6292;SDS011;3179;54.350;10.102;2022-12-07T07:59:49;8.83;;;5.10;;
6292;SDS011;3179;54.350;10.102;2022-12-07T08:02:16;9.60;;;5.00;;
6292;SDS011;3179;54.350;10.102;2022-12-07T08:04:45;5.80;;;4.60;;
6292;SDS011;3179;54.350;10.102;2022-12-07T08:07:12;9.70;;;5.17;;
6292;SDS011;3179;54.350;10.102;2022-12-07T08:09:40;11.50;;;5.27;;
6292;SDS011;3179;54.350;10.102;2022-12-07T08:12:07;7.17;;;4.90;;
6292;SDS011;3179;54.350;10.102;2022-12-07T08:14:36;7.10;;;5.37;;
6292;SDS011;3179;54.350;10.102;2022-12-07T08:17:02;7.10;;;4.60;;
6292;SDS011;3179;54.350;10.102;2022-12-07T08:19:29;6.83;;;4.57;;
6292;SDS011;3179;54.350;10.102;2022-12-07T08:21:56;7.70;;;4.57;;
6292;SDS011;3179;54.350;10.102;2022-12-07T08:24:23;8.17;;;4.77;;
6292;SDS011;3179;54.350;10.102;2022-12-07T08:26:50;5.07;;;3.90;;
6292;SDS011;3179;54.350;10.102;2022-12-07T08:29:17;6.20;;;4.57;;
6292;SDS011;3179;54.350;10.102;2022-12-07T08:31:45;5.33;;;4.83;;
6292;SDS011;3179;54.350;10.102;2022-12-07T08:34:12;6.73;;;4.43;;
6292;SDS011;3179;54.350;10.102;2022-12-07T08:36:40;6.40;;;4.10;;
6292;SDS011;3179;54.350;10.102;2022-12-07T08:39:06;5.67;;;4.23;;
6292;SDS011;3179;54.350;10.102;2022-12-07T08:41:33;7.37;;;3.70;;
6292;SDS011;3179;54.350;10.102;2022-12-07T08:44:00;6.53;;;4.67;;
6292;SDS011;3179;54.350;10.102;2022-12-07T08:46:28;6.57;;;4.10;;
6292;SDS011;3179;54.350;10.102;2022-12-07T08:49:03;10.17;;;3.93;;
6292;SDS011;3179;54.350;10.102;2022-12-07T08:51:32;9.27;;;4.40;;
6292;SDS011;3179;54.350;10.102;2022-12-07T08:54:00;6.43;;;3.60;;
6292;SDS011;3179;54.350;10.102;2022-12-07T08:56:30;9.43;;;4.50;;
6292;SDS011;3179;54.350;10.102;2022-12-07T08:58:57;4.40;;;3.90;;
6292;SDS011;3179;54.350;10.102;2022-12-07T09:01:24;5.73;;;4.00;;
6292;SDS011;3179;54.350;10.102;2022-12-07T09:03:52;5.40;;;3.60;;
6292;SDS011;3179;54.350;10.102;2022-12-07T09:06:20;5.10;;;2.83;;
6292;SDS011;3179;54.350;10.102;2022-12-07T09:08:47;4.57;;;2.90;;
6292;SDS011;3179;54.350;10.102;2022-12-07T09:11:20;2.40;;;2.20;;
6292;SDS011;3179;54.350;10.102;2022-12-07T09:13:46;4.87;;;2.30;;
6292;SDS011;3179;54.350;10.102;2022-12-07T09:16:13;4.60;;;3.00;;
6292;SDS011;3179;54.350;10.102;2022-12-07T09:18:40;3.23;;;2.37;;
6292;SDS011;3179;54.350;10.102;2022-12-07T09:21:07;3.90;;;2.33;;
6292;SDS011;3179;54.350;10.102;2022-12-07T09:23:35;3.07;;;2.00;;
6292;SDS011;3179;54.350;10.102;2022-12-07T09:26:03;4.03;;;1.93;;
6292;SDS011;3179;54.350;10.102;2022-12-07T09:28:30;4.70;;;1.80;;
6292;SDS011;3179;54.350;10.102;2022-12-07T09:30:57;4.97;;;2.30;;
6292;SDS011;3179;54.350;10.102;2022-12-07T09:33:24;2.70;;;1.70;;
6292;SDS011;3179;54.350;10.102;2022-12-07T09:35:51;3.47;;;1.90;;
6292;SDS011;3179;54.350;10.102;2022-12-07T09:38:18;4.37;;;1.80;;
6292;SDS011;3179;54.350;10.102;2022-12-07T09:40:47;4.20;;;1.40;;
6292;SDS011;3179;54.350;10.102;2022-12-07T09:43:14;1.83;;;1.30;;
6292;SDS011;3179;54.350;10.102;2022-12-07T09:45:43;4.10;;;1.67;;
6292;SDS011;3179;54.350;10.102;2022-12-07T09:48:14;3.47;;;1.70;;
6292;SDS011;3179;54.350;10.102;2022-12-07T09:50:44;3.70;;;1.23;;
6292;SDS011;3179;54.350;10.102;2022-12-07T09:53:13;3.03;;;1.40;;
6292;SDS011;3179;54.350;10.102;2022-12-07T09:55:42;2.40;;;1.13;;
6292;SDS011;3179;54.350;10.102;2022-12-07T09:58:11;4.40;;;1.50;;
6292;SDS011;3179;54.350;10.102;2022-12-07T10:00:45;4.93;;;1.33;;
6292;SDS011;3179;54.350;10.102;2022-12-07T10:03:12;3.87;;;1.70;;
6292;SDS011;3179;54.350;10.102;2022-12-07T10:05:40;1.80;;;1.33;;
6292;SDS011;3179;54.350;10.102;2022-12-07T10:08:10;1.80;;;1.00;;
6292;SDS011;3179;54.350;10.102;2022-12-07T10:10:38;1.90;;;1.30;;
6292;SDS011;3179;54.350;10.102;2022-12-07T10:13:07;4.67;;;1.87;;
6292;SDS011;3179;54.350;10.102;2022-12-07T10:15:42;2.03;;;1.17;;
6292;SDS011;3179;54.350;10.102;2022-12-07T10:18:17;1.80;;;1.10;;
6292;SDS011;3179;54.350;10.102;2022-12-07T10:20:47;3.80;;;1.20;;
6292;SDS011;3179;54.350;10.102;2022-12-07T10:23:15;6.27;;;1.83;;
6292;SDS011;3179;54.350;10.102;2022-12-07T10:25:42;3.40;;;1.07;;
6292;SDS011;3179;54.350;10.102;2022-12-07T10:28:13;3.43;;;1.53;;
6292;SDS011;3179;54.350;10.102;2022-12-07T10:30:50;2.60;;;0.83;;
6292;SDS011;3179;54.350;10.102;2022-12-07T10:33:32;2.30;;;1.00;;
6292;SDS011;3179;54.350;10.102;2022-12-07T10:36:01;7.30;;;1.50;;
6292;SDS011;3179;54.350;10.102;2022-12-07T10:38:44;3.00;;;1.20;;
6292;SDS011;3179;54.350;10.102;2022-12-07T10:41:13;1.53;;;1.10;;
6292;SDS011;3179;54.350;10.102;2022-12-07T10:43:46;1.90;;;1.10;;
6292;SDS011;3179;54.350;10.102;2022-12-07T10:46:25;2.97;;;0.87;;
6292;SDS011;3179;54.350;10.102;2022-12-07T10:49:12;2.47;;;1.20;;
6292;SDS011;3179;54.350;10.102;2022-12-07T10:51:54;3.00;;;0.90;;
6292;SDS011;3179;54.350;10.102;2022-12-07T10:54:32;1.60;;;1.00;;
6292;SDS011;3179;54.350;10.102;2022-12-07T10:57:11;2.57;;;1.30;;
6292;SDS011;3179;54.350;10.102;2022-12-07T10:59:53;4.00;;;1.10;;
6292;SDS011;3179;54.350;10.102;2022-12-07T11:02:35;1.57;;;1.10;;
6292;SDS011;3179;54.350;10.102;2022-12-07T11:05:15;3.07;;;1.00;;
6292;SDS011;3179;54.350;10.102;2022-12-07T11:07:51;3.70;;;1.40;;
6292;SDS011;3179;54.350;10.102;2022-12-07T11:10:26;4.10;;;1.37;;
6292;SDS011;3179;54.350;10.102;2022-12-07T11:13:05;3.17;;;1.30;;
6292;SDS011;3179;54.350;10.102;2022-12-07T11:15:59;3.93;;;1.37;;
6292;SDS011;3179;54.350;10.102;2022-12-07T11:18:35;5.80;;;1.27;;
6292;SDS011;3179;54.350;10.102;2022-12-07T11:21:13;2.20;;;1.00;;
6292;SDS011;3179;54.350;10.102;2022-12-07T11:23:49;1.23;;;0.90;;
6292;SDS011;3179;54.350;10.102;2022-12-07T11:26:25;3.40;;;0.70;;
6292;SDS011;3179;54.350;10.102;2022-12-07T11:29:05;3.70;;;1.07;;
6292;SDS011;3179;54.350;10.102;2022-12-07T11:31:48;1.73;;;1.00;;
6292;SDS011;3179;54.350;10.102;2022-12-07T11:34:26;2.30;;;1.07;;
6292;SDS011;3179;54.350;10.102;2022-12-07T11:37:00;2.60;;;1.10;;
6292;SDS011;3179;54.350;10.102;2022-12-07T11:39:30;3.47;;;1.00;;
6292;SDS011;3179;54.350;10.102;2022-12-07T11:42:02;2.73;;;1.23;;
6292;SDS011;3179;54.350;10.102;2022-12-07T11:44:33;2.90;;;1.10;;
6292;SDS011;3179;54.350;10.102;2022-12-07T11:47:07;3.70;;;1.43;;
6292;SDS011;3179;54.350;10.102;2022-12-07T11:49:42;1.20;;;1.10;;
6292;SDS011;3179;54.350;10.102;2022-12-07T11:52:17;4.47;;;1.30;;
6292;SDS011;3179;54.350;10.102;2022-12-07T11:54:48;4.83;;;1.00;;
6292;SDS011;3179;54.350;10.102;2022-12-07T11:57:33;2.60;;;0.97;;
6292;SDS011;3179;54.350;10.102;2022-12-07T12:00:06;2.40;;;0.87;;
6292;SDS011;3179;54.350;10.102;2022-12-07T12:02:41;1.47;;;0.83;;
6292;SDS011;3179;54.350;10.102;2022-12-07T12:05:17;2.50;;;0.90;;
6292;SDS011;3179;54.350;10.102;2022-12-07T12:07:46;1.27;;;0.50;;
6292;SDS011;3179;54.350;10.102;2022-12-07T12:10:19;2.03;;;0.90;;
6292;SDS011;3179;54.350;10.102;2022-12-07T12:12:56;0.87;;;0.70;;
6292;SDS011;3179;54.350;10.102;2022-12-07T12:15:43;2.87;;;1.10;;
6292;SDS011;3179;54.350;10.102;2022-12-07T12:18:28;1.10;;;0.73;;
6292;SDS011;3179;54.350;10.102;2022-12-07T12:21:18;1.33;;;0.83;;
6292;SDS011;3179;54.350;10.102;2022-12-07T12:23:50;2.03;;;0.87;;
6292;SDS011;3179;54.350;10.102;2022-12-07T12:26:22;0.63;;;0.50;;
6292;SDS011;3179;54.350;10.102;2022-12-07T12:28:52;0.73;;;0.67;;
6292;SDS011;3179;54.350;10.102;2022-12-07T12:31:31;1.23;;;0.77;;
6292;SDS011;3179;54.350;10.102;2022-12-07T12:34:10;1.17;;;0.63;;
6292;SDS011;3179;54.350;10.102;2022-12-07T12:37:01;1.50;;;0.90;;
6292;SDS011;3179;54.350;10.102;2022-12-07T12:39:27;3.17;;;1.10;;
6292;SDS011;3179;54.350;10.102;2022-12-07T12:41:58;1.53;;;0.90;;
6292;SDS011;3179;54.350;10.102;2022-12-07T12:47:41;1.33;;;0.70;;
6292;SDS011;3179;54.350;10.102;2022-12-07T12:50:20;3.13;;;0.80;;
6292;SDS011;3179;54.350;10.102;2022-12-07T12:52:51;1.23;;;0.77;;
6292;SDS011;3179;54.350;10.102;2022-12-07T12:58:48;3.53;;;1.07;;
6292;SDS011;3179;54.350;10.102;2022-12-07T13:01:33;1.53;;;0.87;;
6292;SDS011;3179;54.350;10.102;2022-12-07T13:04:18;7.80;;;1.20;;
6292;SDS011;3179;54.350;10.102;2022-12-07T13:06:51;3.90;;;1.60;;
6292;SDS011;3179;54.350;10.102;2022-12-07T13:09:21;1.43;;;0.70;;
6292;SDS011;3179;54.350;10.102;2022-12-07T13:11:49;2.30;;;0.80;;
6292;SDS011;3179;54.350;10.102;2022-12-07T13:14:40;1.60;;;1.00;;
6292;SDS011;3179;54.350;10.102;2022-12-07T13:17:09;1.77;;;1.03;;
6292;SDS011;3179;54.350;10.102;2022-12-07T13:22:35;1.90;;;0.90;;
6292;SDS011;3179;54.350;10.102;2022-12-07T13:25:31;1.13;;;0.67;;
6292;SDS011;3179;54.350;10.102;2022-12-07T13:28:08;1.00;;;0.87;;
6292;SDS011;3179;54.350;10.102;2022-12-07T13:30:43;1.30;;;1.00;;
6292;SDS011;3179;54.350;10.102;2022-12-07T13:33:13;5.30;;;1.00;;
6292;SDS011;3179;54.350;10.102;2022-12-07T13:35:43;1.37;;;0.83;;
6292;SDS011;3179;54.350;10.102;2022-12-07T13:38:16;1.90;;;1.00;;
6292;SDS011;3179;54.350;10.102;2022-12-07T13:41:04;2.27;;;1.00;;
6292;SDS011;3179;54.350;10.102;2022-12-07T13:43:45;0.70;;;0.70;;
6292;SDS011;3179;54.350;10.102;2022-12-07T13:46:15;1.70;;;0.80;;
6292;SDS011;3179;54.350;10.102;2022-12-07T13:48:45;5.60;;;1.03;;
6292;SDS011;3179;54.350;10.102;2022-12-07T13:51:17;0.73;;;0.73;;
6292;SDS011;3179;54.350;10.102;2022-12-07T13:53:47;1.17;;;0.73;;
6292;SDS011;3179;54.350;10.102;2022-12-07T13:56:16;2.50;;;1.03;;
6292;SDS011;3179;54.350;10.102;2022-12-07T13:58:42;1.30;;;1.00;;
6292;SDS011;3179;54.350;10.102;2022-12-07T14:01:09;2.00;;;1.03;;
6292;SDS011;3179;54.350;10.102;2022-12-07T14:03:38;1.67;;;1.00;;
6292;SDS011;3179;54.350;10.102;2022-12-07T14:06:07;0.97;;;0.97;;
6292;SDS011;3179;54.350;10.102;2022-12-07T14:08:43;1.43;;;1.00;;
6292;SDS011;3179;54.350;10.102;2022-12-07T14:11:11;2.60;;;1.37;;
6292;SDS011;3179;54.350;10.102;2022-12-07T14:13:55;2.50;;;1.47;;
6292;SDS011;3179;54.350;10.102;2022-12-07T14:16:25;1.57;;;1.20;;
6292;SDS011;3179;54.350;10.102;2022-12-07T14:18:54;2.00;;;1.80;;
6292;SDS011;3179;54.350;10.102;2022-12-07T14:21:22;2.90;;;1.80;;
6292;SDS011;3179;54.350;10.102;2022-12-07T14:24:07;6.13;;;1.30;;
6292;SDS011;3179;54.350;10.102;2022-12-07T14:26:42;1.40;;;1.30;;
6292;SDS011;3179;54.350;10.102;2022-12-07T14:29:19;2.63;;;1.50;;
6292;SDS011;3179;54.350;10.102;2022-12-07T14:31:54;3.00;;;1.80;;
6292;SDS011;3179;54.350;10.102;2022-12-07T14:34:22;4.07;;;2.60;;
6292;SDS011;3179;54.350;10.102;2022-12-07T14:36:50;3.80;;;2.03;;
6292;SDS011;3179;54.350;10.102;2022-12-07T14:39:16;1.30;;;1.20;;
6292;SDS011;3179;54.350;10.102;2022-12-07T14:41:45;3.47;;;1.40;;
6292;SDS011;3179;54.350;10.102;2022-12-07T14:44:18;3.63;;;1.10;;
6292;SDS011;3179;54.350;10.102;2022-12-07T14:46:46;1.37;;;1.20;;
6292;SDS011;3179;54.350;10.102;2022-12-07T14:49:13;3.23;;;1.60;;
6292;SDS011;3179;54.350;10.102;2022-12-07T14:51:40;1.63;;;1.00;;
6292;SDS011;3179;54.350;10.102;2022-12-07T14:54:11;0.90;;;0.90;;
6292;SDS011;3179;54.350;10.102;2022-12-07T14:56:42;1.30;;;1.20;;
6292;SDS011;3179;54.350;10.102;2022-12-07T14:59:10;1.30;;;1.07;;
6292;SDS011;3179;54.350;10.102;2022-12-07T15:01:38;0.83;;;0.67;;
6292;SDS011;3179;54.350;10.102;2022-12-07T15:04:05;1.20;;;0.93;;
6292;SDS011;3179;54.350;10.102;2022-12-07T15:06:31;2.03;;;1.73;;
6292;SDS011;3179;54.350;10.102;2022-12-07T15:08:58;2.07;;;1.67;;
6292;SDS011;3179;54.350;10.102;2022-12-07T15:11:25;3.13;;;2.30;;
6292;SDS011;3179;54.350;10.102;2022-12-07T15:13:52;4.50;;;2.40;;
6292;SDS011;3179;54.350;10.102;2022-12-07T15:16:36;3.27;;;2.87;;
6292;SDS011;3179;54.350;10.102;2022-12-07T15:19:04;6.00;;;4.50;;
6292;SDS011;3179;54.350;10.102;2022-12-07T15:21:31;20.53;;;12.30;;
6292;SDS011;3179;54.350;10.102;2022-12-07T15:23:58;63.10;;;34.30;;
6292;SDS011;3179;54.350;10.102;2022-12-07T15:26:25;33.83;;;19.40;;
6292;SDS011;3179;54.350;10.102;2022-12-07T15:28:52;11.63;;;8.80;;